Time;durP1;ratioP1;P1;durP2;ratioP2;P2;SDS_P1;SDS_P2;PMS_P1;PMS_P2;Temp;Humidity;BMP_temperature;BMP_pressure;BME280_temperature;BME280_humidity;BME280_pressure;Samples;Min_cycle;Max_cycle;Signal;HPM_P1;HPM_P2
2022/05/28 00:09:44;;;;;;;27.45;18.35;;;13.30;99.90;;;;;;21060049;28;20412;-58
2022/05/28 00:19:47;;;;;;;27.08;17.38;;;13.40;99.90;;;;;;21061351;28;20039;-58
2022/05/28 00:29:49;;;;;;;35.17;20.33;;;13.60;99.90;;;;;;21065286;28;20040;-55
2022/05/28 00:39:51;;;;;;;32.28;18.38;;;13.60;99.90;;;;;;21076253;28;20040;-58
2022/05/28 00:49:55;;;;;;;32.83;17.40;;;13.50;99.90;;;;;;21042595;28;20041;-58
2022/05/28 00:59:58;;;;;;;35.80;18.92;;;13.20;99.90;;;;;;21029381;28;20044;-58
2022/05/28 01:10:17;;;;;;;31.42;18.50;;;13.00;99.90;;;;;;21028072;28;20172;-58
2022/05/28 01:20:28;;;;;;;30.05;19.52;;;13.10;99.90;;;;;;21049301;28;20485;-57
2022/05/28 01:30:31;;;;;;;25.15;15.45;;;13.20;99.90;;;;;;21057236;28;20036;-58
2022/05/28 01:40:35;;;;;;;30.23;17.13;;;13.10;99.90;;;;;;20991815;28;1315361;-53
2022/05/28 01:50:45;;;;;;;27.80;16.88;;;12.90;99.90;;;;;;21050882;28;20196;-58
2022/05/28 02:00:48;;;;;;;30.13;18.20;;;12.70;99.90;;;;;;21028355;28;20044;-58
2022/05/28 02:11:01;;;;;;;31.63;18.15;;;12.40;99.90;;;;;;21002800;28;20090;-58
2022/05/28 02:21:22;;;;;;;34.85;19.75;;;12.40;99.90;;;;;;21025159;28;20434;-58
2022/05/28 02:31:29;;;;;;;26.45;15.75;;;12.50;99.90;;;;;;20992543;28;20062;-58
2022/05/28 02:41:32;;;;;;;13.15;6.43;;;12.30;99.90;;;;;;21060957;28;20051;-54
2022/05/28 02:51:37;;;;;;;8.57;5.35;;;12.10;99.90;;;;;;21047624;28;20040;-54
2022/05/28 03:01:39;;;;;;;7.57;4.68;;;12.20;99.90;;;;;;21046420;28;20044;-58
2022/05/28 03:11:42;;;;;;;5.97;4.50;;;12.10;99.90;;;;;;21045984;28;20093;-52
2022/05/28 03:21:44;;;;;;;7.47;5.45;;;12.10;99.90;;;;;;21059387;28;20032;-53
2022/05/28 03:31:47;;;;;;;7.35;5.13;;;11.90;99.90;;;;;;21044616;28;20104;-57
2022/05/28 03:41:49;;;;;;;11.35;5.40;;;11.90;99.90;;;;;;21016714;28;20106;-53
2022/05/28 03:51:53;;;;;;;10.45;6.32;;;12.10;99.90;;;;;;21021875;28;20052;-53
2022/05/28 04:01:56;;;;;;;10.85;7.38;;;12.00;99.90;;;;;;21050450;28;20036;-56
2022/05/28 04:11:58;;;;;;;15.10;9.07;;;12.00;99.90;;;;;;21034376;28;20040;-53
2022/05/28 04:22:01;;;;;;;19.50;10.57;;;12.30;99.90;;;;;;21036060;28;20040;-51
2022/05/28 04:32:04;;;;;;;22.27;11.95;;;12.50;99.90;;;;;;21014267;28;20455;-57
2022/05/28 04:42:06;;;;;;;31.30;17.13;;;12.80;99.90;;;;;;21061311;28;20109;-57
2022/05/28 04:52:10;;;;;;;26.70;15.30;;;12.70;99.90;;;;;;21049006;28;20112;-55
2022/05/28 05:02:12;;;;;;;31.98;16.77;;;12.70;99.90;;;;;;21066469;28;20433;-54
2022/05/28 05:12:15;;;;;;;30.50;16.27;;;12.80;99.90;;;;;;21073197;28;20542;-54
2022/05/28 05:22:17;;;;;;;39.30;19.73;;;13.00;99.90;;;;;;21054537;28;20285;-53
2022/05/28 05:32:20;;;;;;;43.70;23.65;;;13.30;99.90;;;;;;21064089;28;20058;-54
2022/05/28 05:42:22;;;;;;;27.65;16.48;;;14.40;99.90;;;;;;21064058;28;20056;-58
2022/05/28 05:52:26;;;;;;;24.45;16.50;;;15.40;99.90;;;;;;21033761;28;20040;-58
2022/05/28 06:02:28;;;;;;;27.90;14.60;;;15.80;99.90;;;;;;21039666;28;20048;-58
2022/05/28 06:12:30;;;;;;;19.52;11.80;;;16.40;99.90;;;;;;21038670;28;20512;-59
2022/05/28 06:22:33;;;;;;;17.58;10.15;;;18.70;99.90;;;;;;21056307;28;20036;-57
2022/05/28 06:32:36;;;;;;;23.17;10.82;;;22.80;99.90;;;;;;21045059;28;20081;-60
2022/05/28 06:42:39;;;;;;;25.05;11.57;;;25.80;99.90;;;;;;21080923;28;20132;-59
2022/05/28 06:52:43;;;;;;;17.10;11.93;;;27.70;99.80;;;;;;21087236;28;20081;-60
2022/05/28 07:02:45;;;;;;;20.55;12.82;;;28.60;95.80;;;;;;21059621;28;20069;-61
2022/05/28 07:12:49;;;;;;;19.75;14.63;;;29.40;94.10;;;;;;21071662;28;20120;-61
2022/05/28 07:22:51;;;;;;;20.73;14.65;;;29.60;92.60;;;;;;21068902;28;20481;-62
2022/05/28 07:32:54;;;;;;;17.25;13.73;;;29.60;92.00;;;;;;21079144;28;20117;-62
2022/05/28 07:42:56;;;;;;;18.00;14.77;;;29.80;91.80;;;;;;21088212;28;20078;-63
2022/05/28 07:53:00;;;;;;;20.13;14.75;;;30.50;91.60;;;;;;21075804;28;20077;-64
2022/05/28 08:03:02;;;;;;;16.98;15.18;;;31.70;90.50;;;;;;21065669;28;20028;-63
2022/05/28 08:13:08;;;;;;;19.08;12.45;;;31.20;88.50;;;;;;21066828;28;20028;-63
2022/05/28 08:23:12;;;;;;;17.95;12.50;;;29.70;86.40;;;;;;21074665;28;20085;-61
2022/05/28 08:33:17;;;;;;;17.08;13.15;;;27.30;92.20;;;;;;21075672;28;20100;-60
2022/05/28 08:43:19;;;;;;;23.83;13.15;;;24.90;95.60;;;;;;21056709;28;20640;-60
2022/05/28 08:53:29;;;;;;;19.83;11.45;;;23.50;99.20;;;;;;21036954;28;20044;-61
2022/05/28 09:03:57;;;;;;;17.85;11.77;;;25.30;98.30;;;;;;21038804;28;20109;-57
2022/05/28 09:14:18;;;;;;;24.15;13.55;;;24.10;99.40;;;;;;21056811;28;20032;-59
2022/05/28 09:24:28;;;;;;;21.65;14.43;;;22.60;99.90;;;;;;21035757;28;20497;-55
2022/05/28 09:35:12;;;;;;;19.30;13.18;;;21.70;99.90;;;;;;21030675;28;20032;-57
2022/05/28 09:45:21;;;;;;;18.55;11.85;;;22.00;99.90;;;;;;21034876;28;21410;-60
2022/05/28 09:55:24;;;;;;;18.17;12.75;;;24.10;99.90;;;;;;21052776;28;20044;-60
2022/05/28 10:05:27;;;;;;;18.33;12.30;;;23.20;99.90;;;;;;21037918;28;20044;-57
2022/05/28 10:15:37;;;;;;;14.65;12.20;;;21.80;99.90;;;;;;21051614;28;20031;-61
2022/05/28 10:25:50;;;;;;;13.13;9.30;;;22.70;99.90;;;;;;21042041;28;20066;-58
2022/05/28 10:35:53;;;;;;;21.05;11.05;;;23.90;99.90;;;;;;21047651;28;20085;-58
2022/05/28 10:46:13;;;;;;;17.40;9.00;;;25.00;99.90;;;;;;21033153;28;20121;-60
2022/05/28 10:56:22;;;;;;;14.18;10.50;;;23.80;99.90;;;;;;21050741;28;20031;-60
2022/05/28 11:07:01;;;;;;;22.63;11.13;;;23.20;99.90;;;;;;21030979;28;20414;-57
2022/05/28 11:17:13;;;;;;;;;;;23.90;99.90;;;;;;21045535;28;20092;-59
2022/05/28 11:27:43;;;;;;;19.48;12.02;;;22.20;99.90;;;;;;21029086;28;20430;-56
2022/05/28 11:37:57;;;;;;;21.23;12.98;;;20.60;99.90;;;;;;21036529;28;20112;-58
2022/05/28 11:51:27;;;;;;;16.30;11.75;;;19.60;99.90;;;;;;21033144;28;20041;-58
2022/05/28 11:58:58;;;;;;;17.17;11.80;;;21.50;99.90;;;;;;20738307;28;20046;-58
2022/05/28 12:09:08;;;;;;;24.02;13.30;;;21.20;99.90;;;;;;20721195;28;20709;-58
2022/05/28 12:19:16;;;;;;;21.63;13.73;;;20.40;99.90;;;;;;20730342;28;20046;-58
2022/05/28 12:29:34;;;;;;;19.60;15.48;;;19.70;99.90;;;;;;20811805;28;20567;-58
2022/05/28 12:40:04;;;;;;;17.08;13.00;;;19.60;99.90;;;;;;21050357;28;20566;-56
2022/05/28 12:50:21;;;;;;;19.13;13.52;;;20.50;99.90;;;;;;21035842;28;20098;-58
2022/05/28 13:00:27;;;;;;;21.02;13.95;;;19.00;99.90;;;;;;21039902;28;20028;-58
2022/05/28 13:10:31;;;;;;;20.30;14.45;;;18.00;99.90;;;;;;21051594;28;20473;-56
2022/05/28 13:21:01;;;;;;;24.60;15.65;;;17.20;99.90;;;;;;21050158;28;20070;-57
2022/05/28 13:31:10;;;;;;;23.92;14.93;;;16.80;99.90;;;;;;21051282;28;20035;-57
2022/05/28 13:41:20;;;;;;;19.77;14.27;;;16.50;99.90;;;;;;21016064;28;20386;-57
2022/05/28 13:51:25;;;;;;;22.88;16.13;;;16.50;99.90;;;;;;21057073;28;20048;-58
2022/05/28 14:01:32;;;;;;;25.48;15.05;;;16.40;99.90;;;;;;21073061;28;20032;-58
2022/05/28 14:11:38;;;;;;;19.40;14.35;;;16.30;99.90;;;;;;21035219;28;20040;-57
2022/05/28 14:21:52;;;;;;;19.35;13.38;;;16.50;99.90;;;;;;21049221;28;20093;-58
2022/05/28 14:31:56;;;;;;;20.25;15.25;;;16.60;99.90;;;;;;21042415;28;20040;-58
2022/05/28 14:42:08;;;;;;;22.65;15.02;;;16.70;99.90;;;;;;21041374;28;20101;-52
2022/05/28 14:52:10;;;;;;;20.92;14.30;;;16.50;99.90;;;;;;21029081;28;20058;-53
2022/05/28 15:02:34;;;;;;;20.77;14.25;;;16.40;99.90;;;;;;21055308;28;20101;-58
2022/05/28 15:12:37;;;;;;;17.25;10.98;;;16.00;99.90;;;;;;21030562;28;20040;-58
2022/05/28 15:22:41;;;;;;;16.95;10.18;;;15.50;99.90;;;;;;21040273;28;20066;-57
2022/05/28 15:32:44;;;;;;;14.48;9.52;;;15.20;99.90;;;;;;21045829;28;20043;-58
2022/05/28 15:42:46;;;;;;;13.05;9.15;;;14.80;99.90;;;;;;21052418;28;20109;-58
2022/05/28 15:52:50;;;;;;;14.98;9.70;;;14.40;99.90;;;;;;21050317;28;20048;-57
2022/05/28 16:02:54;;;;;;;17.05;10.23;;;13.90;99.90;;;;;;21080536;28;20040;-57
2022/05/28 16:12:57;;;;;;;29.83;14.15;;;13.50;99.90;;;;;;21045894;28;20073;-46
2022/05/28 16:23:00;;;;;;;21.02;11.68;;;13.20;99.90;;;;;;21042501;28;20085;-49
2022/05/28 16:33:04;;;;;;;28.70;14.80;;;13.10;99.90;;;;;;21050904;28;20032;-57
2022/05/28 16:43:08;;;;;;;19.70;11.95;;;13.00;99.90;;;;;;21065488;28;20052;-57
2022/05/28 16:53:11;;;;;;;18.23;11.63;;;12.90;99.90;;;;;;21075104;28;20039;-58
2022/05/28 17:03:14;;;;;;;20.30;11.95;;;12.90;99.90;;;;;;21056530;28;20061;-50
2022/05/28 17:13:29;;;;;;;18.95;11.80;;;13.00;99.90;;;;;;21055892;28;20080;-57
2022/05/28 17:23:34;;;;;;;21.75;12.05;;;13.00;99.90;;;;;;21055136;28;20819;-56
2022/05/28 17:33:38;;;;;;;17.83;12.25;;;12.90;99.90;;;;;;21062763;28;20036;-57
2022/05/28 17:43:40;;;;;;;19.70;10.20;;;12.80;99.90;;;;;;21069336;28;20040;-57
2022/05/28 17:53:43;;;;;;;17.58;13.30;;;12.70;99.90;;;;;;21049412;28;20028;-47
2022/05/28 18:03:48;;;;;;;15.07;11.00;;;12.40;99.90;;;;;;21052130;28;20488;-49
2022/05/28 18:13:50;;;;;;;15.85;10.07;;;12.30;99.90;;;;;;21067128;28;20097;-57
2022/05/28 18:23:56;;;;;;;16.95;11.15;;;12.20;99.90;;;;;;21050136;28;20109;-56
2022/05/28 18:34:02;;;;;;;18.70;9.32;;;12.30;99.90;;;;;;21045564;28;20070;-52
2022/05/28 18:44:06;;;;;;;9.38;5.38;;;12.20;99.90;;;;;;21069307;28;20097;-45
2022/05/28 18:54:09;;;;;;;9.75;6.13;;;12.00;99.90;;;;;;21071252;28;20044;-55
2022/05/28 19:04:14;;;;;;;17.17;10.68;;;11.70;99.90;;;;;;21040762;28;20032;-56
2022/05/28 19:14:27;;;;;;;12.85;8.25;;;11.50;99.90;;;;;;21063770;28;20085;-52
2022/05/28 19:24:30;;;;;;;17.15;9.60;;;11.40;99.90;;;;;;21058670;28;20526;-50
2022/05/28 19:34:52;;;;;;;10.40;6.95;;;11.40;99.90;;;;;;21061391;28;20607;-56
2022/05/28 19:45:21;;;;;;;13.60;8.60;;;11.40;99.90;;;;;;21048093;28;20044;-56
2022/05/28 19:55:25;;;;;;;11.57;8.23;;;11.40;99.90;;;;;;21044447;28;20039;-55
2022/05/28 20:05:28;;;;;;;11.82;8.18;;;11.40;99.90;;;;;;21059793;28;20113;-56
2022/05/28 20:15:32;;;;;;;8.77;6.30;;;11.40;99.90;;;;;;21087252;28;20032;-56
2022/05/28 20:25:37;;;;;;;7.53;4.63;;;11.30;99.90;;;;;;21065299;28;20036;-55
2022/05/28 20:35:52;;;;;;;12.23;4.40;;;11.10;99.90;;;;;;21058719;28;20109;-51
2022/05/28 20:45:59;;;;;;;6.18;4.53;;;10.80;99.90;;;;;;21041903;28;20036;-53
2022/05/28 20:56:04;;;;;;;4.78;2.35;;;10.50;99.90;;;;;;21055912;28;20434;-46
2022/05/28 21:06:35;;;;;;;1.75;1.25;;;10.40;99.90;;;;;;21049846;28;20037;-56
2022/05/28 21:16:41;;;;;;;2.08;0.65;;;10.40;99.90;;;;;;21044954;28;20093;-44
2022/05/28 21:37:06;;;;;;;2.38;1.20;;;10.20;99.90;;;;;;21034531;28;20582;-44
2022/05/28 21:47:12;;;;;;;1.70;1.00;;;10.10;99.90;;;;;;21041329;28;20067;-45
2022/05/28 21:57:15;;;;;;;1.45;0.65;;;10.00;99.90;;;;;;21039889;28;20036;-45
2022/05/28 22:07:18;;;;;;;1.58;0.50;;;9.90;99.90;;;;;;21043008;28;20186;-45
2022/05/28 22:17:22;;;;;;;0.60;0.25;;;9.60;99.90;;;;;;21077839;28;20044;-54
2022/05/28 22:27:24;;;;;;;0.47;0.30;;;9.50;99.90;;;;;;21049917;28;20085;-44
2022/05/28 22:37:27;;;;;;;2.05;0.10;;;9.40;99.90;;;;;;21040783;28;20604;-44
2022/05/28 22:47:30;;;;;;;0.80;0.28;;;9.30;99.90;;;;;;21033697;28;20485;-44
2022/05/28 22:57:34;;;;;;;0.52;0.20;;;9.20;99.90;;;;;;21034241;28;20035;-51
2022/05/28 23:07:38;;;;;;;4.38;0.30;;;9.20;99.90;;;;;;21047444;28;20044;-45
2022/05/28 23:17:43;;;;;;;0.80;0.40;;;9.20;99.90;;;;;;21046096;28;20040;-44
2022/05/28 23:27:45;;;;;;;1.75;0.22;;;9.00;99.90;;;;;;21041252;28;20040;-52
2022/05/28 23:37:50;;;;;;;3.40;0.50;;;9.00;99.90;;;;;;21033886;28;20050;-45
2022/05/28 23:47:55;;;;;;;1.92;0.40;;;8.90;99.90;;;;;;21028447;28;20032;-51
2022/05/28 23:57:58;;;;;;;2.17;0.60;;;8.70;99.90;;;;;;21035785;28;20149;-55
